Date,TemperatureHighF,TemperatureAvgF,TemperatureLowF,DewpointHighF,DewpointAvgF,DewpointLowF,HumidityHigh,HumidityAvg,HumidityLow,PressureMaxIn,PressureMinIn,WindSpeedMaxMPH,WindSpeedAvgMPH,GustSpeedMaxMPH,PrecipitationSumIn
2012-10-9,58.5,57.7,56.5,55.8,55.0,53.2,95,91,87,30.10,30.08,3,1,7,0.03
2012-10-10,63.6,60.0,58.6,58.0,56.1,54.3,92,87,79,30.09,30.00,8,1,8,0.00
2012-10-11,67.1,55.6,45.2,54.4,47.5,42.2,93,76,49,30.32,30.09,7,1,8,0.00
2012-10-12,71.1,57.2,47.9,56.6,49.1,43.2,96,77,43,30.40,30.17,7,1,8,0.00
2012-10-13,65.6,52.9,42.9,51.0,44.5,39.5,96,75,46,30.49,30.35,6,0,8,0.00
2012-10-14,74.2,60.5,48.2,63.2,55.4,47.1,98,84,64,30.35,30.01,11,2,15,0.00
2012-10-15,69.1,65.1,57.0,66.6,61.9,50.9,97,90,80,30.01,29.69,8,2,10,0.23
2012-10-16,66.7,56.0,48.4,56.2,49.2,44.7,97,79,51,29.97,29.83,5,0,8,0.00
2012-10-17,71.6,57.5,48.8,56.2,51.3,47.7,98,82,52,30.02,29.92,7,1,10,0.00
2012-10-18,76.6,61.6,48.7,65.7,56.9,47.2,97,86,66,29.95,29.78,6,1,10,0.00
2012-10-19,77.6,68.6,60.4,66.8,58.6,42.1,97,74,39,29.79,29.64,15,3,20,0.05
2012-10-20,68.6,59.5,50.5,54.9,48.3,44.5,89,67,50,29.94,29.73,8,1,9,0.00
2012-10-21,65.8,54.9,47.3,52.0,46.2,42.8,95,74,47,30.15,29.95,4,1,6,0.00
2012-10-22,72.8,55.1,45.3,58.4,48.9,44.5,98,82,42,30.24,30.14,1,0,3,0.00
2012-10-23,80.2,61.1,47.4,61.0,53.1,46.3,97,78,43,30.18,30.08,5,0,8,0.00
2012-10-24,79.5,64.9,54.6,65.8,57.4,52.3,94,78,52,30.18,30.06,4,0,7,0.00
2012-10-25,81.2,65.4,54.5,63.2,58.2,53.4,97,80,48,30.17,30.10,4,0,9,0.00
2012-10-26,70.5,65.3,60.3,65.1,62.4,58.9,96,90,83,30.14,29.96,4,1,7,0.01
2012-10-27,66.1,63.7,61.5,63.1,59.9,55.8,96,87,79,29.96,29.72,7,3,13,0.01
2012-10-28,61.9,59.2,53.9,56.0,51.6,48.1,94,76,62,29.73,29.56,8,6,15,0.00
2012-10-29,54.7,49.0,43.3,53.6,47.3,40.9,96,94,89,29.55,29.18,16,12,22,0.69
2012-10-30,50.0,45.5,41.3,41.9,39.3,36.5,93,80,63,29.56,29.17,14,8,24,0.12
2012-10-31,54.0,48.6,42.2,44.1,39.5,36.6,83,71,60,29.74,29.55,13,5,16,0.00
2012-11-1,55.2,50.1,44.7,44.4,41.2,38.8,82,72,59,29.83,29.72,13,6,16,0.00
2012-11-2,57.7,46.9,38.7,44.2,38.9,34.9,92,75,48,29.97,29.82,12,2,16,0.00
2012-11-3,55.9,45.5,37.4,42.2,37.3,32.4,96,74,49,30.09,29.97,10,2,15,0.00
2012-11-5,53.0,44.7,35.5,37.0,34.6,32.0,87,69,50,30.15,30.05,6,1,15,0.00
2012-11-6,46.2,39.8,33.3,35.8,33.1,30.5,92,78,60,30.18,29.93,5,1,15,0.00
2012-11-7,46.8,41.3,38.3,39.8,36.3,34.3,92,82,70,29.95,29.85,7,1,11,0.02
2012-11-8,58.9,46.9,39.2,40.6,35.3,23.6,90,67,30,30.10,29.94,10,3,13,0.00
2012-11-9,62.0,46.6,36.5,46.3,38.2,32.4,94,74,45,30.26,30.10,5,0,7,0.00
2012-11-10,72.2,52.0,37.9,50.2,41.5,36.7,100,73,31,30.39,30.25,7,1,10,0.00
2012-11-11,73.3,55.3,41.0,54.1,47.2,39.1,95,77,42,30.49,30.37,6,1,10,0.00
2012-11-12,72.7,62.3,50.7,61.8,56.9,49.1,97,83,64,30.44,30.17,11,2,16,0.00
2012-11-13,64.4,49.8,36.6,61.7,47.8,35.6,96,93,89,30.45,30.14,13,2,15,0.11
2012-11-14,51.4,39.8,32.1,38.0,33.6,29.4,96,80,56,30.52,30.40,5,1,9,0.00
2012-11-15,49.2,42.6,36.2,43.9,38.3,31.5,95,85,75,30.42,30.25,5,1,6,0.09
2012-11-16,54.6,45.2,37.8,42.5,39.0,34.3,95,80,54,30.41,30.27,7,1,11,0.01
2012-11-17,56.9,44.4,33.9,39.8,34.6,29.9,92,71,37,30.52,30.41,5,1,11,0.00
2012-11-18,56.4,50.4,44.6,47.7,44.4,39.8,90,80,71,30.50,30.38,5,2,13,0.00
2012-11-19,56.7,51.6,48.8,48.2,45.3,43.4,84,79,72,30.39,30.19,7,3,14,0.00
2012-11-20,58.8,50.0,42.9,49.1,44.5,41.0,93,82,65,30.19,30.06,4,1,6,0.00
2012-11-21,58.5,45.9,38.1,44.8,38.4,32.5,100,77,44,30.20,30.10,6,1,10,0.00
2012-11-22,60.7,45.4,35.5,39.2,34.7,31.0,94,70,36,30.26,30.16,6,1,11,0.00
2012-11-23,65.5,49.4,32.5,46.5,38.5,31.2,97,70,41,30.18,29.85,13,2,14,0.00
2012-11-24,54.4,44.4,34.0,41.0,31.1,22.0,71,60,46,30.13,29.86,15,9,18,0.00
2012-11-25,50.7,39.1,28.0,30.4,26.4,22.1,90,62,37,30.17,30.01,7,2,12,0.00
2012-11-26,61.5,46.0,34.7,42.0,34.5,27.9,92,67,32,30.20,30.06,4,0,5,0.00
2012-11-27,51.1,44.6,37.0,44.1,39.8,34.3,95,84,68,30.26,30.12,5,0,6,0.09
2012-11-28,50.2,39.3,32.0,39.6,34.9,30.5,96,85,60,30.40,30.25,6,1,8,0.00
2012-11-29,52.6,38.4,30.7,36.6,32.2,26.4,96,81,45,30.49,30.38,5,0,7,0.00
2012-11-30,61.4,44.3,33.0,44.5,37.3,31.0,100,79,48,30.41,30.29,6,1,8,0.00
2012-12-1,60.9,44.8,35.5,49.0,40.3,34.5,97,86,55,30.42,30.33,3,0,5,0.00
2012-12-2,65.6,50.1,36.8,53.5,45.3,35.8,97,85,64,30.40,30.22,10,2,13,0.00
2012-12-3,68.5,59.0,49.8,57.2,53.9,48.4,96,84,64,30.28,30.20,4,1,8,0.00
2012-12-4,71.2,57.6,45.1,58.2,51.3,44.0,98,82,55,30.31,30.15,12,2,18,0.00
2012-12-5,62.0,55.6,42.8,57.0,52.4,42.0,97,89,81,30.24,30.08,5,0,7,0.14
2012-12-6,50.7,41.4,31.9,42.0,35.5,30.5,97,81,58,30.37,30.24,4,0,7,0.01
2012-12-7,50.5,46.7,41.6,49.1,43.9,37.0,96,90,82,30.25,30.00,4,0,6,0.08
2012-12-8,62.3,52.2,48.3,56.4,50.7,47.2,100,95,80,30.05,29.95,4,1,6,0.00
2012-12-9,66.1,56.4,47.6,60.9,54.8,46.8,99,94,82,30.14,29.98,7,0,9,0.02
2012-12-10,69.1,64.6,61.1,63.6,60.8,58.6,100,88,74,29.98,29.65,12,5,16,0.00
2012-12-11,65.7,55.7,48.1,60.2,48.6,39.5,88,77,71,30.18,29.68,11,3,18,0.00
2012-12-12,48.1,44.9,41.6,40.2,34.4,31.6,75,66,59,30.38,30.17,3,1,9,0.00
2012-12-13,53.1,42.0,35.2,39.3,34.9,31.6,91,77,55,30.42,30.32,6,2,9,0.04
2012-12-14,54.9,38.9,30.9,41.4,34.0,29.9,97,84,48,30.39,30.24,5,0,5,0.00
2012-12-15,56.8,42.6,32.6,42.6,36.7,31.3,100,82,45,30.29,30.11,7,0,11,0.00
2012-12-16,56.1,50.9,45.2,55.4,49.4,42.5,100,95,85,30.10,29.88,8,1,11,0.23
2012-12-17,59.5,56.7,53.0,56.7,54.9,52.2,98,94,87,29.89,29.62,6,1,10,0.21
2012-12-18,59.5,54.8,42.9,55.8,48.2,36.8,95,79,58,29.88,29.61,15,6,17,0.00
2012-12-19,62.1,46.4,36.3,47.1,39.0,33.6,94,77,47,30.18,29.87,11,2,14,0.00
2012-12-20,60.9,47.7,36.9,59.7,43.2,35.5,96,85,65,30.20,29.41,15,1,21,0.26
2012-12-21,61.6,45.7,39.5,60.2,34.7,26.2,96,66,54,29.75,29.41,19,13,26,0.08
2012-12-22,47.7,42.4,38.4,31.5,28.8,25.6,71,59,44,30.08,29.75,18,11,22,0.00
2012-12-23,57.3,44.5,31.7,34.6,27.6,21.8,85,54,29,30.14,29.98,11,4,17,0.00
2012-12-24,51.0,46.4,41.5,46.6,40.2,31.5,92,79,59,30.05,29.89,6,0,10,0.01
2012-12-25,55.2,48.6,44.5,47.0,44.4,40.0,95,86,71,30.16,29.92,4,1,7,0.00
2012-12-26,46.5,42.6,39.5,45.7,40.8,37.9,97,93,78,30.15,29.44,13,3,16,1.19
2012-12-27,46.7,42.1,34.8,38.5,34.6,27.4,94,75,61,30.09,29.57,19,10,20,0.00
2012-12-28,45.4,36.9,30.3,35.3,30.1,25.8,92,77,59,30.21,30.04,7,1,8,0.00
2012-12-29,48.5,42.0,37.5,42.1,37.4,33.6,96,84,66,30.03,29.63,18,6,19,0.26
2012-12-30,44.4,40.1,34.0,34.2,28.3,23.5,79,63,47,30.38,29.91,16,9,19,0.00
2012-12-31,50.2,40.9,30.3,34.4,28.4,23.7,86,62,45,30.37,30.08,11,1,14,0.00
2013-1-1,48.1,46.1,45.0,44.6,39.0,31.2,97,77,52,30.10,29.92,8,1,10,0.14